Time;durP1;ratioP1;P1;durP2;ratioP2;P2;SDS_P1;SDS_P2;PMS_P1;PMS_P2;Temp;Humidity;BMP_temperature;BMP_pressure;BME280_temperature;BME280_humidity;BME280_pressure;Samples;Min_cycle;Max_cycle;Signal;HPM_P1;HPM_P2
2023/04/16 00:01:13;;;;;;;;;;;;;;;9.01;100.00;99206.78;5028725;28;20022;-77
2023/04/16 00:03:39;;;;;;;;;;;;;;;8.94;100.00;99205.69;5022731;28;19926;-78
2023/04/16 00:06:04;;;;;;;;;;;;;;;8.97;100.00;99211.47;5024629;28;19925;-77
2023/04/16 00:08:30;;;;;;;;;;;;;;;8.97;100.00;99210.66;5023636;28;19948;-77
2023/04/16 00:10:55;;;;;;;;;;;;;;;8.85;100.00;99207.34;5021700;28;19928;-76
2023/04/16 00:13:21;;;;;;;;;;;;;;;8.68;100.00;99194.06;5024489;28;19925;-76
2023/04/16 00:15:46;;;;;;;;;;;;;;;8.58;100.00;99189.66;5025215;28;20378;-75
2023/04/16 00:18:12;;;;;;;;;;;;;;;8.50;100.00;99186.03;5023051;28;19928;-74
2023/04/16 00:20:37;;;;;;;;;;;;;;;8.49;100.00;99190.47;5024770;28;19922;-75
2023/04/16 00:23:02;;;;;;;;;;;;;;;8.52;100.00;99187.56;5027756;28;20020;-75
2023/04/16 00:25:28;;;;;;;;;;;;;;;8.60;100.00;99187.69;5023335;28;19921;-75
2023/04/16 00:27:53;;;;;;;;;;;;;;;8.61;100.00;99184.09;5025775;28;19972;-75
2023/04/16 00:30:19;;;;;;;;;;;;;;;8.58;100.00;99180.94;5023822;28;19936;-75
2023/04/16 00:32:44;;;;;;;;;;;;;;;8.47;100.00;99192.44;5027592;28;19921;-76
2023/04/16 00:35:10;;;;;;;;;;;;;;;8.49;100.00;99182.56;5028128;28;19925;-75
2023/04/16 00:37:35;;;;;;;;;;;;;;;8.25;100.00;99179.50;5022237;28;19929;-76
2023/04/16 00:40:00;;;;;;;;;;;;;;;8.34;100.00;99183.97;5023693;28;19921;-74
2023/04/16 00:42:26;;;;;;;;;;;;;;;8.33;100.00;99181.47;5023573;28;19971;-75
2023/04/16 00:44:51;;;;;;;;;;;;;;;8.13;100.00;99183.22;5023788;28;19921;-75
2023/04/16 00:47:18;;;;;;;;;;;;;;;8.31;100.00;99181.59;5027274;28;20023;-76
2023/04/16 00:49:43;;;;;;;;;;;;;;;8.35;100.00;99188.28;5004985;28;19921;-75
2023/04/16 00:52:10;;;;;;;;;;;;;;;8.22;100.00;99188.50;5021635;28;19933;-75
2023/04/16 00:54:35;;;;;;;;;;;;;;;8.13;100.00;99188.47;5024804;28;19999;-76
2023/04/16 00:57:01;;;;;;;;;;;;;;;7.88;100.00;99194.25;5022672;28;20360;-76
2023/04/16 00:59:28;;;;;;;;;;;;;;;7.93;100.00;99199.91;5021853;28;19925;-76
2023/04/16 01:01:53;;;;;;;;;;;;;;;7.94;100.00;99204.22;5029939;28;20375;-75
2023/04/16 01:04:19;;;;;;;;;;;;;;;8.07;100.00;99200.34;5025321;28;20076;-76
2023/04/16 01:06:44;;;;;;;;;;;;;;;7.95;100.00;99198.81;5006885;28;19964;-75
2023/04/16 01:09:10;;;;;;;;;;;;;;;7.90;100.00;99193.13;5027426;28;19972;-76
2023/04/16 01:11:36;;;;;;;;;;;;;;;7.98;100.00;99195.09;5026050;28;20759;-76
2023/04/16 01:14:02;;;;;;;;;;;;;;;8.05;100.00;99199.69;5027232;28;19936;-77
2023/04/16 01:16:27;;;;;;;;;;;;;;;8.06;100.00;99193.47;5027001;28;19922;-76
2023/04/16 01:18:53;;;;;;;;;;;;;;;8.07;100.00;99191.66;5029125;28;19949;-76
2023/04/16 01:21:18;;;;;;;;;;;;;;;8.00;100.00;99201.06;5029197;28;19925;-76
2023/04/16 01:23:44;;;;;;;;;;;;;;;8.08;100.00;99201.19;5027940;28;19925;-75
2023/04/16 01:26:09;;;;;;;;;;;;;;;8.13;100.00;99204.22;5022450;28;19925;-76
2023/04/16 01:28:35;;;;;;;;;;;;;;;8.02;100.00;99217.50;5028217;28;19930;-76
2023/04/16 01:31:00;;;;;;;;;;;;;;;8.04;100.00;99210.31;5030759;28;19927;-75
2023/04/16 01:33:51;;;;;;;;;;;;;;;7.89;100.00;99209.88;5019172;28;19921;-76
2023/04/16 01:36:16;;;;;;;;;;;;;;;7.77;100.00;99214.41;5024642;28;19933;-77
2023/04/16 01:38:42;;;;;;;;;;;;;;;7.85;100.00;99210.25;5028402;28;19925;-76
2023/04/16 01:41:07;;;;;;;;;;;;;;;7.86;100.00;99206.66;5024888;28;20337;-76
2023/04/16 01:43:33;;;;;;;;;;;;;;;7.88;100.00;99210.00;5028155;28;19921;-77
2023/04/16 01:46:11;;;;;;;;;;;;;;;7.82;100.00;99217.47;5023963;28;20002;-77
2023/04/16 01:48:36;;;;;;;;;;;;;;;7.82;100.00;99211.38;5027721;28;19976;-76
2023/04/16 01:51:03;;;;;;;;;;;;;;;7.78;100.00;99209.97;5025212;28;19933;-76
2023/04/16 01:53:29;;;;;;;;;;;;;;;7.78;100.00;99209.97;5027747;28;20328;-76
2023/04/16 01:55:54;;;;;;;;;;;;;;;7.84;100.00;99212.06;5023355;28;19925;-75
2023/04/16 01:58:20;;;;;;;;;;;;;;;7.80;100.00;99219.38;5026644;28;19921;-76
2023/04/16 02:00:45;;;;;;;;;;;;;;;7.65;100.00;99218.09;5012891;28;19931;-75
2023/04/16 02:03:11;;;;;;;;;;;;;;;7.68;100.00;99225.69;5030316;28;20024;-75
2023/04/16 02:05:36;;;;;;;;;;;;;;;7.25;100.00;99217.19;5031054;28;19924;-75
2023/04/16 02:08:02;;;;;;;;;;;;;;;7.24;100.00;99213.75;5020597;28;19935;-76
2023/04/16 02:10:28;;;;;;;;;;;;;;;7.28;100.00;99214.31;5023513;28;19921;-75
2023/04/16 02:12:54;;;;;;;;;;;;;;;7.19;100.00;99223.78;5026438;28;19928;-75
2023/04/16 02:15:19;;;;;;;;;;;;;;;7.17;100.00;99224.91;5023772;28;19925;-76
2023/04/16 02:17:46;;;;;;;;;;;;;;;7.05;100.00;99218.06;5010645;28;19979;-75
2023/04/16 02:20:12;;;;;;;;;;;;;;;7.06;100.00;99217.09;5024299;28;20289;-74
2023/04/16 02:22:45;;;;;;;;;;;;;;;7.05;100.00;99215.44;5007699;28;20286;-75
2023/04/16 02:25:14;;;;;;;;;;;;;;;7.15;100.00;99217.13;5024817;28;19927;-76
2023/04/16 02:27:40;;;;;;;;;;;;;;;7.14;100.00;99219.88;5027670;28;19980;-76
2023/04/16 02:30:20;;;;;;;;;;;;;;;7.05;100.00;99220.69;5007696;28;19973;-76
2023/04/16 02:32:45;;;;;;;;;;;;;;;6.97;100.00;99210.81;5029850;28;20404;-76
2023/04/16 02:35:11;;;;;;;;;;;;;;;6.96;100.00;99217.00;5027012;28;19921;-76
2023/04/16 02:37:39;;;;;;;;;;;;;;;7.01;100.00;99221.91;5021508;28;19968;-76
2023/04/16 02:40:05;;;;;;;;;;;;;;;6.87;100.00;99223.03;4993419;28;19925;-75
2023/04/16 02:42:30;;;;;;;;;;;;;;;6.79;100.00;99226.28;5027674;28;20277;-75
2023/04/16 02:44:56;;;;;;;;;;;;;;;6.90;100.00;99217.53;5008223;28;19932;-76
2023/04/16 02:47:21;;;;;;;;;;;;;;;6.93;100.00;99218.13;5021198;28;20019;-75
2023/04/16 02:49:47;;;;;;;;;;;;;;;6.88;100.00;99217.69;5025133;28;20383;-75
2023/04/16 02:52:12;;;;;;;;;;;;;;;6.85;100.00;99217.91;5023398;28;20421;-76
2023/04/16 02:54:38;;;;;;;;;;;;;;;6.86;100.00;99211.72;5022436;28;20406;-76
2023/04/16 02:57:04;;;;;;;;;;;;;;;6.77;100.00;99215.13;5021115;28;19929;-75
2023/04/16 02:59:30;;;;;;;;;;;;;;;6.74;100.00;99217.97;5026543;28;19921;-76
2023/04/16 03:01:55;;;;;;;;;;;;;;;6.54;100.00;99216.16;5031772;28;19983;-74
2023/04/16 03:04:21;;;;;;;;;;;;;;;6.64;100.00;99230.19;5007379;28;19929;-76
2023/04/16 03:06:46;;;;;;;;;;;;;;;6.62;100.00;99229.47;5027065;28;20297;-76
2023/04/16 03:09:12;;;;;;;;;;;;;;;6.61;100.00;99222.56;5023964;28;19921;-75
2023/04/16 03:11:37;;;;;;;;;;;;;;;6.57;100.00;99210.66;5021053;28;19917;-75
2023/04/16 03:14:03;;;;;;;;;;;;;;;6.48;100.00;99224.53;5025192;28;19926;-76
2023/04/16 03:16:29;;;;;;;;;;;;;;;6.42;100.00;99217.97;5006610;28;19921;-75
2023/04/16 03:18:54;;;;;;;;;;;;;;;6.47;100.00;99215.00;5024040;28;19921;-76
2023/04/16 03:21:20;;;;;;;;;;;;;;;6.58;100.00;99217.59;5023916;28;19994;-76
2023/04/16 03:23:45;;;;;;;;;;;;;;;6.48;100.00;99216.69;5023925;28;20012;-76
2023/04/16 03:26:11;;;;;;;;;;;;;;;6.56;100.00;99227.34;5023283;28;20350;-76
2023/04/16 03:28:36;;;;;;;;;;;;;;;6.50;100.00;99223.44;5008964;28;19921;-77
2023/04/16 03:31:02;;;;;;;;;;;;;;;6.47;100.00;99225.50;5029010;28;20258;-76
2023/04/16 03:33:28;;;;;;;;;;;;;;;6.10;100.00;99223.22;5005518;28;19921;-76
2023/04/16 03:35:54;;;;;;;;;;;;;;;6.14;100.00;99229.88;5030174;28;19936;-75
2023/04/16 03:38:20;;;;;;;;;;;;;;;6.28;100.00;99227.94;5002589;28;19921;-77
2023/04/16 03:40:46;;;;;;;;;;;;;;;6.28;100.00;99230.56;5025301;28;19944;-76
2023/04/16 03:43:13;;;;;;;;;;;;;;;6.31;100.00;99232.91;5005159;28;20377;-75
2023/04/16 03:45:42;;;;;;;;;;;;;;;6.39;100.00;99227.88;5022534;28;20019;-75
2023/04/16 03:48:08;;;;;;;;;;;;;;;6.37;100.00;99232.41;4990904;28;19921;-75
2023/04/16 03:50:33;;;;;;;;;;;;;;;6.29;100.00;99240.09;5005880;28;20436;-75
2023/04/16 03:53:01;;;;;;;;;;;;;;;6.30;100.00;99228.66;5007390;28;19921;-74
2023/04/16 03:55:27;;;;;;;;;;;;;;;6.20;100.00;99231.16;5006513;28;19927;-75
2023/04/16 03:57:52;;;;;;;;;;;;;;;6.08;100.00;99230.34;5026783;28;19925;-75
2023/04/16 04:00:18;;;;;;;;;;;;;;;6.14;100.00;99224.63;5021386;28;19943;-75
2023/04/16 04:02:56;;;;;;;;;;;;;;;6.21;100.00;99222.34;5007379;28;19956;-75
2023/04/16 04:05:22;;;;;;;;;;;;;;;6.13;100.00;99225.56;5006263;28;20216;-75
2023/04/16 04:07:48;;;;;;;;;;;;;;;5.94;100.00;99227.19;5026847;28;19925;-76
2023/04/16 04:10:15;;;;;;;;;;;;;;;5.87;100.00;99220.72;5030063;28;20032;-76
2023/04/16 04:12:41;;;;;;;;;;;;;;;5.81;100.00;99232.50;5025053;28;20289;-76
2023/04/16 04:15:07;;;;;;;;;;;;;;;5.76;100.00;99230.25;5028432;28;19921;-76
2023/04/16 04:17:32;;;;;;;;;;;;;;;5.75;100.00;99233.00;5021321;28;19980;-76
2023/04/16 04:19:58;;;;;;;;;;;;;;;5.86;100.00;99232.16;5021796;28;19933;-75
2023/04/16 04:22:23;;;;;;;;;;;;;;;5.84;100.00;99234.03;5027807;28;20719;-76
2023/04/16 04:24:51;;;;;;;;;;;;;;;5.73;100.00;99234.88;5019651;28;19921;-75
2023/04/16 04:27:16;;;;;;;;;;;;;;;5.86;100.00;99242.63;5025848;28;19925;-75
2023/04/16 04:29:42;;;;;;;;;;;;;;;5.87;100.00;99247.78;5024054;28;19928;-76
2023/04/16 04:32:07;;;;;;;;;;;;;;;5.78;100.00;99244.03;5003503;28;19921;-75
2023/04/16 04:34:33;;;;;;;;;;;;;;;5.83;100.00;99253.34;5030050;28;20405;-75
2023/04/16 04:36:59;;;;;;;;;;;;;;;5.74;100.00;99253.09;5032149;28;20401;-74
2023/04/16 04:39:27;;;;;;;;;;;;;;;5.77;100.00;99246.81;5025653;28;20378;-75
2023/04/16 04:41:53;;;;;;;;;;;;;;;5.71;100.00;99242.06;5011045;28;19921;-76
2023/04/16 04:44:18;;;;;;;;;;;;;;;5.77;100.00;99246.81;5007602;28;19986;-77
2023/04/16 04:46:44;;;;;;;;;;;;;;;5.55;100.00;99246.78;5014823;28;20392;-75
2023/04/16 04:49:10;;;;;;;;;;;;;;;5.49;100.00;99252.50;5026584;28;20023;-75
2023/04/16 04:51:36;;;;;;;;;;;;;;;5.45;100.00;99251.06;5011687;28;20024;-74
2023/04/16 04:54:02;;;;;;;;;;;;;;;5.51;100.00;99250.59;5010813;28;19921;-74
2023/04/16 04:56:27;;;;;;;;;;;;;;;5.55;100.00;99252.84;5027621;28;20393;-75
2023/04/16 04:58:53;;;;;;;;;;;;;;;5.50;100.00;99260.22;5025398;28;19929;-74
2023/04/16 05:01:19;;;;;;;;;;;;;;;5.65;100.00;99258.22;5010755;28;19931;-75
2023/04/16 05:03:44;;;;;;;;;;;;;;;5.57;100.00;99271.91;5031371;28;20253;-75
2023/04/16 05:06:10;;;;;;;;;;;;;;;5.65;100.00;99276.56;5028531;28;20277;-75
2023/04/16 05:08:35;;;;;;;;;;;;;;;5.70;100.00;99266.56;5026147;28;19922;-75
2023/04/16 05:11:01;;;;;;;;;;;;;;;5.72;100.00;99264.63;5029345;28;20024;-75
2023/04/16 05:13:26;;;;;;;;;;;;;;;5.84;100.00;99268.09;5027201;28;19928;-75
2023/04/16 05:15:51;;;;;;;;;;;;;;;5.70;100.00;99266.56;5027264;28;19921;-76
2023/04/16 05:18:17;;;;;;;;;;;;;;;5.62;100.00;99264.53;5024224;28;19972;-76
2023/04/16 05:20:42;;;;;;;;;;;;;;;5.71;100.00;99273.47;5028429;28;20340;-75
2023/04/16 05:23:08;;;;;;;;;;;;;;;5.71;100.00;99278.69;5028965;28;19921;-75
2023/04/16 05:25:33;;;;;;;;;;;;;;;5.81;100.00;99274.41;5025744;28;20410;-75
2023/04/16 05:27:59;;;;;;;;;;;;;;;5.81;100.00;99278.81;5025483;28;20377;-75
2023/04/16 05:30:24;;;;;;;;;;;;;;;5.77;100.00;99273.00;5026865;28;19921;-74
2023/04/16 05:32:50;;;;;;;;;;;;;;;5.87;100.00;99268.72;5027502;28;20385;-76
2023/04/16 05:35:15;;;;;;;;;;;;;;;5.94;100.00;99274.31;5027736;28;20286;-75
2023/04/16 05:37:41;;;;;;;;;;;;;;;5.98;100.00;99281.81;5024907;28;19921;-75
2023/04/16 05:40:07;;;;;;;;;;;;;;;5.97;100.00;99281.91;5030324;28;19928;-75
2023/04/16 05:42:32;;;;;;;;;;;;;;;5.98;100.00;99284.44;5027700;28;19944;-76
2023/04/16 05:44:57;;;;;;;;;;;;;;;5.81;100.00;99284.03;5025365;28;19921;-74
2023/04/16 05:47:23;;;;;;;;;;;;;;;5.97;100.00;99295.00;5028221;28;19923;-75
2023/04/16 05:49:48;;;;;;;;;;;;;;;6.11;100.00;99294.78;5009932;28;19925;-75
2023/04/16 05:52:14;;;;;;;;;;;;;;;6.16;100.00;99295.25;5023684;28;20016;-75
2023/04/16 05:54:39;;;;;;;;;;;;;;;6.13;100.00;99293.69;5024429;28;19956;-76
2023/04/16 05:57:05;;;;;;;;;;;;;;;6.24;100.00;99299.88;5025329;28;19928;-77
2023/04/16 05:59:30;;;;;;;;;;;;;;;6.30;100.00;99291.53;5026936;28;19925;-76
2023/04/16 06:01:56;;;;;;;;;;;;;;;6.39;100.00;99296.88;5026214;28;19921;-75
2023/04/16 06:04:22;;;;;;;;;;;;;;;6.27;100.00;99307.50;5026281;28;19928;-76
2023/04/16 06:06:47;;;;;;;;;;;;;;;6.08;100.00;99308.09;5027118;28;19949;-76
2023/04/16 06:09:13;;;;;;;;;;;;;;;6.12;100.00;99305.16;5026108;28;19925;-76
2023/04/16 06:11:38;;;;;;;;;;;;;;;6.10;100.00;99300.97;5025258;28;19921;-74
2023/04/16 06:14:03;;;;;;;;;;;;;;;6.21;100.00;99302.72;5026404;28;20012;-76
2023/04/16 06:16:29;;;;;;;;;;;;;;;6.44;100.00;99313.06;5025182;28;20012;-73
2023/04/16 06:18:54;;;;;;;;;;;;;;;6.47;100.00;99314.59;5028013;28;19921;-76
2023/04/16 06:21:20;;;;;;;;;;;;;;;6.54;100.00;99310.50;5031405;28;19925;-77
2023/04/16 06:23:45;;;;;;;;;;;;;;;6.71;100.00;99302.16;5029356;28;19925;-77
2023/04/16 06:26:10;;;;;;;;;;;;;;;6.74;100.00;99307.13;5032174;28;20393;-76
2023/04/16 06:28:36;;;;;;;;;;;;;;;6.75;100.00;99314.06;5029693;28;20013;-76
2023/04/16 06:31:01;;;;;;;;;;;;;;;6.94;100.00;99319.47;5027722;28;19963;-75
2023/04/16 06:33:26;;;;;;;;;;;;;;;7.16;100.00;99322.94;5031810;28;19996;-75
2023/04/16 06:35:52;;;;;;;;;;;;;;;7.20;100.00;99329.59;5031510;28;19921;-77
2023/04/16 06:38:17;;;;;;;;;;;;;;;7.15;100.00;99318.66;5028427;28;20400;-81
2023/04/16 06:40:43;;;;;;;;;;;;;;;7.36;100.00;99309.00;5030643;28;20328;-78
2023/04/16 06:43:08;;;;;;;;;;;;;;;7.51;100.00;99312.13;5027302;28;20289;-75
2023/04/16 06:45:34;;;;;;;;;;;;;;;7.71;100.00;99320.00;5023722;28;19922;-75
2023/04/16 06:48:03;;;;;;;;;;;;;;;7.83;100.00;99321.53;5025721;28;19921;-77
2023/04/16 06:50:29;;;;;;;;;;;;;;;7.95;100.00;99316.22;5021845;28;19973;-75
2023/04/16 06:52:55;;;;;;;;;;;;;;;8.11;100.00;99327.06;5025322;28;19925;-76
2023/04/16 06:55:20;;;;;;;;;;;;;;;8.26;100.00;99309.97;5023921;28;19977;-74
2023/04/16 06:57:45;;;;;;;;;;;;;;;8.41;100.00;99308.66;5025375;28;19928;-75
2023/04/16 07:00:11;;;;;;;;;;;;;;;8.56;100.00;99311.72;5022829;28;19921;-77
2023/04/16 07:02:37;;;;;;;;;;;;;;;8.68;100.00;99315.06;5026578;28;20452;-75
2023/04/16 07:05:02;;;;;;;;;;;;;;;8.85;100.00;99328.38;5022532;28;19928;-76
2023/04/16 07:07:27;;;;;;;;;;;;;;;8.99;100.00;99329.78;5023943;28;19929;-79
2023/04/16 07:09:53;;;;;;;;;;;;;;;9.09;100.00;99341.13;5022188;28;19972;-78
2023/04/16 07:12:19;;;;;;;;;;;;;;;9.15;100.00;99330.06;5025767;28;19921;-79
2023/04/16 07:14:45;;;;;;;;;;;;;;;9.33;100.00;99333.63;5023224;28;20344;-78
2023/04/16 07:17:10;;;;;;;;;;;;;;;9.34;100.00;99329.22;5026265;28;19925;-78
2023/04/16 07:19:36;;;;;;;;;;;;;;;9.43;100.00;99323.09;5023304;28;20059;-77
2023/04/16 07:22:01;;;;;;;;;;;;;;;9.59;100.00;99328.63;5023866;28;19944;-78
2023/04/16 07:24:27;;;;;;;;;;;;;;;9.69;100.00;99323.31;5024177;28;19921;-77
2023/04/16 07:26:52;;;;;;;;;;;;;;;9.74;100.00;99329.00;5022819;28;19921;-81
2023/04/16 07:29:17;;;;;;;;;;;;;;;9.92;100.00;99329.91;5025895;28;19988;-80
2023/04/16 07:31:44;;;;;;;;;;;;;;;10.13;100.00;99332.34;5020798;28;19921;-78
2023/04/16 07:34:09;;;;;;;;;;;;;;;10.33;100.00;99333.09;5025800;28;19921;-79
2023/04/16 07:36:35;;;;;;;;;;;;;;;10.51;100.00;99326.06;5022419;28;20007;-77
2023/04/16 07:39:00;;;;;;;;;;;;;;;10.65;100.00;99333.47;5027384;28;19921;-79
2023/04/16 07:41:26;;;;;;;;;;;;;;;10.80;100.00;99326.69;5022423;28;19921;-78
2023/04/16 07:43:51;;;;;;;;;;;;;;;10.90;100.00;99331.91;5025040;28;19921;-77
2023/04/16 07:46:17;;;;;;;;;;;;;;;11.02;100.00;99328.06;5022118;28;20301;-77
2023/04/16 07:48:42;;;;;;;;;;;;;;;11.10;100.00;99333.44;5032062;28;19940;-78
2023/04/16 07:51:07;;;;;;;;;;;;;;;11.18;100.00;99344.06;5032337;28;20012;-77
2023/04/16 07:53:33;;;;;;;;;;;;;;;11.35;100.00;99347.69;5035408;28;19968;-79
2023/04/16 07:55:58;;;;;;;;;;;;;;;11.46;100.00;99358.00;5030152;28;19953;-78
2023/04/16 07:58:24;;;;;;;;;;;;;;;11.54;100.00;99358.09;5029447;28;19921;-78
2023/04/16 08:00:50;;;;;;;;;;;;;;;11.71;100.00;99354.56;5030488;28;20358;-78
2023/04/16 08:03:15;;;;;;;;;;;;;;;11.84;99.49;99354.16;5031945;28;19976;-78
2023/04/16 08:05:41;;;;;;;;;;;;;;;11.97;98.16;99361.69;5025717;28;19928;-81
2023/04/16 08:08:06;;;;;;;;;;;;;;;12.02;96.19;99364.69;5032793;28;20027;-78
2023/04/16 08:10:32;;;;;;;;;;;;;;;12.14;95.48;99371.38;5025998;28;19925;-78
2023/04/16 08:12:59;;;;;;;;;;;;;;;12.21;94.28;99373.25;5025947;28;19928;-78
2023/04/16 08:15:24;;;;;;;;;;;;;;;12.28;94.56;99376.09;5029522;28;19921;-77
2023/04/16 08:17:49;;;;;;;;;;;;;;;12.42;96.12;99375.50;5027354;28;19932;-78
2023/04/16 08:20:15;;;;;;;;;;;;;;;12.48;94.72;99381.97;5027963;28;19925;-78
2023/04/16 08:22:40;;;;;;;;;;;;;;;12.57;95.06;99379.19;5026517;28;19928;-79
2023/04/16 08:25:06;;;;;;;;;;;;;;;12.68;95.12;99381.53;5023376;28;20062;-79
2023/04/16 08:27:31;;;;;;;;;;;;;;;12.73;95.64;99373.94;5031364;28;19921;-79
2023/04/16 08:29:57;;;;;;;;;;;;;;;12.89;95.17;99380.28;5024028;28;19969;-76
2023/04/16 08:32:22;;;;;;;;;;;;;;;13.03;94.75;99384.94;5025941;28;19944;-78
2023/04/16 08:34:48;;;;;;;;;;;;;;;13.06;92.74;99389.94;5025816;28;20354;-79
2023/04/16 08:37:13;;;;;;;;;;;;;;;13.18;92.65;99375.41;5024542;28;19921;-79
2023/04/16 08:39:38;;;;;;;;;;;;;;;13.30;93.48;99381.22;5022071;28;19921;-82
2023/04/16 08:42:04;;;;;;;;;;;;;;;13.36;91.81;99378.75;5022098;28;20012;-81
2023/04/16 08:44:36;;;;;;;;;;;;;;;13.33;91.47;99381.72;5021550;28;20347;-79
2023/04/16 08:47:02;;;;;;;;;;;;;;;13.39;91.23;99380.22;5026210;28;20404;-78
2023/04/16 08:49:27;;;;;;;;;;;;;;;13.47;90.99;99378.44;5027774;28;19921;-79
2023/04/16 08:51:53;;;;;;;;;;;;;;;13.49;90.58;99376.41;5024030;28;19921;-78
2023/04/16 08:54:42;;;;;;;;;;;;;;;13.44;90.76;99378.75;5024774;28;20017;-79
2023/04/16 08:57:09;;;;;;;;;;;;;;;13.61;90.76;99384.06;5021717;28;20316;-77
2023/04/16 08:59:35;;;;;;;;;;;;;;;13.69;90.99;99387.53;5006061;28;20294;-78
2023/04/16 09:02:01;;;;;;;;;;;;;;;13.76;91.42;99393.00;5020741;28;19928;-78
2023/04/16 09:04:27;;;;;;;;;;;;;;;13.75;91.13;99389.50;5023008;28;19921;-78
2023/04/16 09:06:54;;;;;;;;;;;;;;;13.77;91.20;99389.34;5024229;28;19983;-78
2023/04/16 09:09:21;;;;;;;;;;;;;;;13.69;91.75;99386.69;5022773;28;20358;-81
2023/04/16 09:11:49;;;;;;;;;;;;;;;13.69;91.45;99381.38;5022025;28;20266;-78
2023/04/16 09:14:15;;;;;;;;;;;;;;;13.76;91.36;99379.72;5020254;28;20805;-78
2023/04/16 09:16:40;;;;;;;;;;;;;;;13.87;90.87;99384.69;5018634;28;19925;-75
2023/04/16 09:19:06;;;;;;;;;;;;;;;13.95;90.38;99387.34;5021587;28;20024;-77
2023/04/16 09:21:31;;;;;;;;;;;;;;;13.89;88.29;99382.72;5022930;28;19976;-79
2023/04/16 09:23:57;;;;;;;;;;;;;;;13.98;89.16;99381.69;5027920;28;20392;-75
2023/04/16 09:26:23;;;;;;;;;;;;;;;14.12;91.71;99378.34;5023336;28;19941;-75
2023/04/16 09:28:50;;;;;;;;;;;;;;;14.27;90.48;99379.28;5028401;28;19940;-79
2023/04/16 09:31:16;;;;;;;;;;;;;;;14.35;89.66;99379.28;5024479;28;19979;-76
2023/04/16 09:33:42;;;;;;;;;;;;;;;14.41;88.37;99382.28;5030884;28;20397;-73
2023/04/16 09:36:08;;;;;;;;;;;;;;;14.48;88.09;99377.94;5024531;28;19976;-75
2023/04/16 09:39:03;;;;;;;;;;;;;;;14.54;86.80;99387.88;5029658;28;19967;-75
2023/04/16 09:41:34;;;;;;;;;;;;;;;14.61;86.31;99380.84;5008475;28;19987;-78
2023/04/16 09:44:01;;;;;;;;;;;;;;;14.63;84.25;99378.88;5021570;28;19937;-77
2023/04/16 09:46:30;;;;;;;;;;;;;;;14.69;83.22;99380.84;5023615;28;19922;-78
2023/04/16 09:48:56;;;;;;;;;;;;;;;14.78;83.92;99379.81;5026154;28;20020;-80
2023/04/16 09:51:21;;;;;;;;;;;;;;;14.84;82.36;99387.09;5029084;28;19929;-78
2023/04/16 09:53:50;;;;;;;;;;;;;;;14.88;80.04;99375.09;5026209;28;19928;-79
2023/04/16 09:56:15;;;;;;;;;;;;;;;14.92;81.94;99376.41;5024258;28;19980;-79
2023/04/16 09:58:41;;;;;;;;;;;;;;;14.99;79.67;99372.03;5024279;28;19968;-79
2023/04/16 10:01:08;;;;;;;;;;;;;;;15.04;78.79;99375.00;5026890;28;19928;-78
2023/04/16 10:03:34;;;;;;;;;;;;;;;15.09;77.78;99375.28;5024602;28;19926;-78
2023/04/16 10:06:05;;;;;;;;;;;;;;;15.15;76.87;99374.59;5026238;28;19917;-77
2023/04/16 10:08:31;;;;;;;;;;;;;;;15.22;77.59;99373.88;5025574;28;19921;-79
2023/04/16 10:10:56;;;;;;;;;;;;;;;15.29;75.26;99366.84;5025557;28;19929;-77
2023/04/16 10:13:22;;;;;;;;;;;;;;;15.35;70.89;99371.47;5025892;28;19943;-78
2023/04/16 10:15:48;;;;;;;;;;;;;;;15.40;71.82;99374.41;5023838;28;19928;-78
2023/04/16 10:18:14;;;;;;;;;;;;;;;15.46;69.98;99373.72;5022037;28;19937;-78
2023/04/16 10:20:40;;;;;;;;;;;;;;;15.49;70.68;99370.72;5007837;28;19933;-77
2023/04/16 10:23:06;;;;;;;;;;;;;;;15.50;70.37;99369.69;5023218;28;19968;-78
2023/04/16 10:25:31;;;;;;;;;;;;;;;15.59;70.37;99373.97;5025903;28;19929;-78
2023/04/16 10:27:58;;;;;;;;;;;;;;;15.65;70.94;99362.63;5024152;28;19921;-78
2023/04/16 10:30:24;;;;;;;;;;;;;;;15.72;71.98;99358.22;5024615;28;19922;-79
2023/04/16 10:32:50;;;;;;;;;;;;;;;15.81;72.23;99354.47;5022134;28;19929;-78
2023/04/16 10:35:18;;;;;;;;;;;;;;;15.90;70.39;99356.03;5027152;28;19971;-79
2023/04/16 10:37:44;;;;;;;;;;;;;;;15.92;67.95;99359.34;5028305;28;19968;-79
2023/04/16 10:40:25;;;;;;;;;;;;;;;15.93;67.38;99355.69;5022540;28;20308;-79
2023/04/16 10:42:54;;;;;;;;;;;;;;;15.98;67.78;99353.31;5022647;28;19925;-79
2023/04/16 10:45:24;;;;;;;;;;;;;;;16.03;66.60;99351.91;5025529;28;19936;-77
2023/04/16 10:47:50;;;;;;;;;;;;;;;16.07;64.45;99355.91;5023558;28;19933;-78
2023/04/16 10:50:15;;;;;;;;;;;;;;;16.13;65.54;99349.84;5025580;28;19921;-78
2023/04/16 10:52:41;;;;;;;;;;;;;;;16.19;65.56;99351.78;5022473;28;19921;-78
2023/04/16 10:55:07;;;;;;;;;;;;;;;16.25;64.43;99343.03;5025900;28;19921;-79
2023/04/16 10:57:32;;;;;;;;;;;;;;;16.32;59.56;99343.94;5019705;28;19921;-79
2023/04/16 10:59:58;;;;;;;;;;;;;;;16.35;60.90;99338.25;5025008;28;20015;-78
2023/04/16 11:02:26;;;;;;;;;;;;;;;16.41;59.75;99342.84;5021031;28;20004;-78
2023/04/16 11:04:55;;;;;;;;;;;;;;;16.46;59.86;99329.78;5028606;28;19927;-78
2023/04/16 11:07:30;;;;;;;;;;;;;;;16.51;58.98;99332.72;5022526;28;19929;-78
2023/04/16 11:09:59;;;;;;;;;;;;;;;16.56;59.25;99319.66;5024443;28;19968;-79
2023/04/16 11:12:26;;;;;;;;;;;;;;;16.61;58.45;99322.63;5024218;28;19949;-78
2023/04/16 11:14:58;;;;;;;;;;;;;;;16.66;59.47;99320.25;5023963;28;19975;-78
2023/04/16 11:17:27;;;;;;;;;;;;;;;16.76;60.61;99319.94;5022305;28;19921;-78
2023/04/16 11:19:52;;;;;;;;;;;;;;;16.87;58.07;99316.78;4987626;28;19917;-78
2023/04/16 11:22:19;;;;;;;;;;;;;;;16.97;57.47;99311.97;5024595;28;20262;-78
2023/04/16 11:24:45;;;;;;;;;;;;;;;17.02;55.10;99312.22;5022906;28;20397;-78
2023/04/16 11:27:11;;;;;;;;;;;;;;;17.11;55.47;99310.25;5025134;28;20353;-77
2023/04/16 11:29:37;;;;;;;;;;;;;;;17.15;55.53;99309.69;5023126;28;19929;-77
2023/04/16 11:32:02;;;;;;;;;;;;;;;17.19;55.88;99310.16;5026200;28;19926;-78
2023/04/16 11:34:28;;;;;;;;;;;;;;;17.28;56.65;99302.81;5065733;23;20095;-80
2023/04/16 11:36:53;;;;;;;;;;;;;;;17.36;55.73;99300.88;5055381;28;19921;-80
2023/04/16 11:39:19;;;;;;;;;;;;;;;17.50;55.39;99291.09;5060012;28;19978;-80
2023/04/16 11:41:45;;;;;;;;;;;;;;;17.61;54.82;99287.97;5054988;28;19921;-80
2023/04/16 11:44:17;;;;;;;;;;;;;;;17.73;53.42;99290.91;5059632;28;20238;-80
2023/04/16 11:46:43;;;;;;;;;;;;;;;17.78;52.27;99291.16;5050207;28;19921;-80
2023/04/16 11:49:08;;;;;;;;;;;;;;;17.92;53.00;99300.88;5058914;28;19947;-80
2023/04/16 11:51:38;;;;;;;;;;;;;;;18.03;52.01;99292.31;5063385;28;19935;-80
2023/04/16 11:54:03;;;;;;;;;;;;;;;18.12;51.78;99285.81;5056652;28;20380;-79
2023/04/16 11:56:30;;;;;;;;;;;;;;;18.26;52.28;99282.16;5059422;28;19927;-80
2023/04/16 11:59:10;;;;;;;;;;;;;;;18.38;51.21;99291.25;5057440;28;19928;-80
2023/04/16 12:01:36;;;;;;;;;;;;;;;18.45;50.15;99279.78;5058864;28;20395;-80
2023/04/16 12:04:02;;;;;;;;;;;;;;;18.46;49.78;99286.78;5057725;28;19921;-80
2023/04/16 12:06:27;;;;;;;;;;;;;;;18.55;49.88;99280.28;5060487;28;19921;-80
2023/04/16 12:08:52;;;;;;;;;;;;;;;18.65;48.93;99280.72;5054985;28;20305;-80
2023/04/16 12:11:18;;;;;;;;;;;;;;;18.66;49.64;99277.03;5057055;28;20304;-80
2023/04/16 12:14:03;;;;;;;;;;;;;;;18.72;49.61;99271.69;5057575;28;20377;-80
2023/04/16 12:16:28;;;;;;;;;;;;;;;18.79;49.27;99269.84;5058645;28;19931;-80
2023/04/16 12:19:01;;;;;;;;;;;;;;;18.89;48.65;99272.13;5061093;28;19920;-80
2023/04/16 12:21:40;;;;;;;;;;;;;;;18.92;48.90;99277.06;5057857;28;19917;-80
2023/04/16 12:24:06;;;;;;;;;;;;;;;18.92;48.73;99271.72;5062524;28;19971;-82
2023/04/16 12:26:41;;;;;;;;;;;;;;;18.97;48.94;99276.44;5060113;28;19916;-82
2023/04/16 12:29:13;;;;;;;;;;;;;;;19.01;48.26;99273.19;5059689;28;19924;-80
2023/04/16 12:31:38;;;;;;;;;;;;;;;19.11;48.31;99270.94;5056656;28;20012;-80
2023/04/16 12:34:04;;;;;;;;;;;;;;;19.34;47.66;99272.38;5042228;28;20015;-80
2023/04/16 12:36:30;;;;;;;;;;;;;;;19.48;47.61;99261.50;5056579;28;19966;-81
2023/04/16 12:38:55;;;;;;;;;;;;;;;19.70;47.03;99264.78;5061209;28;19935;-80
2023/04/16 12:41:21;;;;;;;;;;;;;;;19.91;45.97;99259.16;5058154;28;19925;-80